Time;durP1;ratioP1;P1;durP2;ratioP2;P2;SDS_P1;SDS_P2;PMS_P1;PMS_P2;Temp;Humidity;BMP_temperature;BMP_pressure;BME280_temperature;BME280_humidity;BME280_pressure;Samples;Min_cycle;Max_cycle;Signal;HPM_P1;HPM_P2
2020/12/11 00:00:07;;;;;;;35.90;13.80;;;;;;;3.17;77.04;99333.31;8836657;32;20729;-74
2020/12/11 00:05:10;;;;;;;31.00;13.40;;;;;;;3.14;77.11;99330.84;8837521;32;21080;-73
2020/12/11 00:10:15;;;;;;;35.33;13.23;;;;;;;3.18;76.95;99327.09;8837101;32;20189;-74
2020/12/11 00:15:19;;;;;;;31.57;14.40;;;;;;;3.18;76.81;99309.50;8836897;32;20146;-74
2020/12/11 00:20:21;;;;;;;35.00;15.37;;;;;;;3.20;77.11;99306.75;8836766;32;20186;-74
2020/12/11 00:25:24;;;;;;;30.60;13.93;;;;;;;3.20;76.55;99299.69;8835389;32;20286;-74
2020/12/11 00:30:27;;;;;;;35.70;14.43;;;;;;;3.18;76.66;99284.88;8835883;32;20138;-73
2020/12/11 00:35:30;;;;;;;34.63;14.50;;;;;;;3.23;76.30;99277.56;8836412;32;20186;-74
2020/12/11 00:40:32;;;;;;;38.60;14.43;;;;;;;3.19;76.24;99265.47;8836010;32;20142;-74
2020/12/11 00:45:44;;;;;;;27.03;12.03;;;;;;;3.19;76.48;99271.59;8835924;32;20190;-74
2020/12/11 00:50:47;;;;;;;30.47;13.20;;;;;;;3.18;76.39;99255.84;8810341;32;20583;-74
2020/12/11 00:55:49;;;;;;;34.37;14.67;;;;;;;3.16;76.47;99245.38;8835688;32;20245;-74
2020/12/11 01:00:52;;;;;;;37.07;14.93;;;;;;;3.15;76.31;99237.53;8836644;32;20230;-73
2020/12/11 01:05:55;;;;;;;34.37;15.07;;;;;;;3.15;76.23;99225.19;8835907;32;20190;-74
2020/12/11 01:10:57;;;;;;;35.83;13.87;;;;;;;3.15;76.47;99219.91;8833695;32;20265;-73
2020/12/11 01:16:00;;;;;;;38.13;16.40;;;;;;;3.08;76.57;99208.84;8835704;32;20182;-73
2020/12/11 01:21:03;;;;;;;41.90;15.67;;;;;;;3.08;76.41;99203.56;8835073;32;20135;-73
2020/12/11 01:26:08;;;;;;;37.90;14.80;;;;;;;3.10;76.88;99211.41;8834590;32;20200;-73
2020/12/11 01:31:16;;;;;;;38.87;14.87;;;;;;;3.10;76.60;99211.41;8834625;32;20588;-75
2020/12/11 01:36:26;;;;;;;34.97;14.77;;;;;;;3.10;76.32;99201.69;8834498;32;20224;-76
2020/12/11 01:41:32;;;;;;;30.33;14.33;;;;;;;3.07;76.57;99188.69;8834642;32;20178;-75
2020/12/11 01:46:39;;;;;;;40.13;15.73;;;;;;;3.06;76.67;99172.91;8834442;32;20151;-74
2020/12/11 01:51:47;;;;;;;40.97;15.53;;;;;;;3.05;76.91;99160.66;8833503;32;20292;-75
2020/12/11 01:56:57;;;;;;;44.13;16.17;;;;;;;3.04;76.74;99148.41;8894522;32;20346;-74
2020/12/11 02:02:04;;;;;;;45.50;15.60;;;;;;;3.06;76.61;99143.88;8895473;32;20908;-73
2020/12/11 02:07:07;;;;;;;34.20;14.67;;;;;;;3.03;76.74;99133.50;8896416;32;20284;-75
2020/12/11 02:12:09;;;;;;;42.37;15.87;;;;;;;3.00;76.81;99123.97;8894944;32;20210;-75
2020/12/11 02:17:12;;;;;;;38.60;16.13;;;;;;;3.00;77.13;99123.97;8894887;32;20299;-74
2020/12/11 02:22:15;;;;;;;42.20;15.10;;;;;;;3.01;76.68;99120.38;8894586;32;20440;-74
2020/12/11 02:27:18;;;;;;;41.33;15.87;;;;;;;3.01;76.79;99115.13;8868370;32;20126;-74
2020/12/11 02:32:21;;;;;;;38.10;15.33;;;;;;;2.97;76.58;99103.03;8893242;32;20181;-75
2020/12/11 02:37:25;;;;;;;38.67;16.17;;;;;;;2.91;76.25;99087.56;8894076;32;20571;-74
2020/12/11 02:42:27;;;;;;;34.20;14.90;;;;;;;2.86;76.33;99073.78;8893435;32;20181;-74
2020/12/11 02:47:32;;;;;;;33.93;14.60;;;;;;;2.86;76.14;99079.91;8893613;32;20447;-74
2020/12/11 02:52:36;;;;;;;32.37;13.73;;;;;;;2.96;76.28;99084.66;8893114;32;20626;-74
2020/12/11 02:57:38;;;;;;;35.63;14.67;;;;;;;3.00;76.07;99068.56;8893185;32;20234;-75
2020/12/11 03:02:40;;;;;;;29.07;13.80;;;;;;;3.02;76.00;99069.34;8895977;32;20267;-74
2020/12/11 03:07:44;;;;;;;34.90;14.33;;;;;;;3.06;75.69;99067.38;8898828;32;20731;-73
2020/12/11 03:12:46;;;;;;;36.57;15.47;;;;;;;3.04;75.59;99062.16;8897848;32;20185;-75
2020/12/11 03:17:49;;;;;;;39.03;15.07;;;;;;;3.03;75.69;99057.84;8897341;32;20434;-74
2020/12/11 03:22:56;;;;;;;35.37;13.83;;;;;;;3.01;75.95;99050.94;8897525;32;20184;-73
2020/12/11 03:28:01;;;;;;;34.90;14.40;;;;;;;3.01;75.93;99043.03;8898213;32;20522;-74
2020/12/11 03:33:04;;;;;;;37.80;14.83;;;;;;;2.90;76.37;99033.09;8897608;32;20423;-74
2020/12/11 03:38:07;;;;;;;37.43;15.07;;;;;;;2.89;76.51;99029.59;8898406;32;20141;-74
2020/12/11 03:43:09;;;;;;;28.63;12.97;;;;;;;2.86;76.57;99027.16;8897503;32;20150;-75
2020/12/11 03:48:11;;;;;;;32.73;13.50;;;;;;;2.92;76.66;99022.47;8897858;32;20190;-74
2020/12/11 03:53:15;;;;;;;35.77;14.73;;;;;;;2.94;76.50;99021.44;8897767;32;20172;-74
2020/12/11 03:58:17;;;;;;;32.47;14.17;;;;;;;2.94;76.46;99005.59;8897609;32;20510;-74
2020/12/11 04:03:19;;;;;;;31.70;13.33;;;;;;;2.93;76.30;98990.69;8897182;32;20899;-75
2020/12/11 04:08:22;;;;;;;36.17;13.80;;;;;;;2.96;76.21;98985.25;8897433;32;20189;-75
2020/12/11 04:13:24;;;;;;;38.43;16.40;;;;;;;2.94;76.54;98973.94;8896275;32;21344;-73
2020/12/11 04:18:28;;;;;;;37.50;15.40;;;;;;;2.96;76.53;98979.97;8897284;32;20191;-75
2020/12/11 04:23:31;;;;;;;34.13;14.00;;;;;;;2.98;76.31;98979.88;8897020;32;20223;-73
2020/12/11 04:28:34;;;;;;;37.80;14.90;;;;;;;2.98;75.92;98978.09;8897071;32;21391;-73
2020/12/11 04:33:36;;;;;;;38.80;14.97;;;;;;;3.03;76.24;98989.22;8870922;32;20934;-76
2020/12/11 04:38:39;;;;;;;38.97;15.03;;;;;;;3.08;75.90;98987.19;8896734;32;20173;-75
2020/12/11 04:43:43;;;;;;;34.03;14.67;;;;;;;3.16;76.09;98992.03;8896407;32;20181;-76
2020/12/11 04:48:45;;;;;;;38.93;14.87;;;;;;;3.16;75.90;98994.66;8896628;32;20148;-75
2020/12/11 04:53:53;;;;;;;35.23;14.60;;;;;;;3.17;76.11;98991.06;8895788;32;20441;-76
2020/12/11 04:58:56;;;;;;;40.50;14.70;;;;;;;3.20;76.06;99005.88;8895580;32;20662;-75
2020/12/11 05:04:00;;;;;;;35.80;13.50;;;;;;;3.20;75.49;99005.88;8896186;32;20177;-75
2020/12/11 05:09:17;;;;;;;34.40;13.70;;;;;;;3.29;75.38;98997.41;8895664;32;20207;-75
2020/12/11 05:14:23;;;;;;;29.03;14.13;;;;;;;3.26;75.61;98998.47;8895249;32;20168;-75
2020/12/11 05:19:28;;;;;;;33.87;14.37;;;;;;;3.23;75.50;98993.34;8895437;32;20259;-75
2020/12/11 05:24:42;;;;;;;27.67;13.13;;;;;;;3.21;75.09;98981.16;8894620;32;20185;-75
2020/12/11 05:29:45;;;;;;;29.67;13.37;;;;;;;3.28;74.91;98975.44;8895057;32;20195;-75
2020/12/11 05:34:47;;;;;;;30.33;12.37;;;;;;;3.31;74.63;98964.69;8868882;32;20710;-74
2020/12/11 05:39:51;;;;;;;28.93;12.90;;;;;;;3.30;74.28;98968.28;8894374;32;20445;-74
2020/12/11 05:44:53;;;;;;;29.40;13.00;;;;;;;3.25;74.49;98954.50;8894355;32;20168;-75
2020/12/11 05:50:08;;;;;;;26.43;12.57;;;;;;;3.16;74.71;98941.03;8894014;32;20691;-74
2020/12/11 05:55:17;;;;;;;27.53;13.57;;;;;;;3.17;74.66;98918.97;8894258;32;20448;-74
2020/12/11 06:00:20;;;;;;;31.43;13.07;;;;;;;3.07;74.59;98893.16;8893799;32;20421;-75
2020/12/11 06:05:24;;;;;;;31.57;12.93;;;;;;;3.06;74.58;98882.66;8846589;32;20190;-74
2020/12/11 06:10:27;;;;;;;28.60;12.37;;;;;;;3.25;74.39;98882.41;8833020;32;20247;-75
2020/12/11 06:15:36;;;;;;;28.33;12.77;;;;;;;3.24;74.80;98864.88;8896531;32;20412;-75
2020/12/11 06:20:39;;;;;;;35.37;15.73;;;;;;;3.26;74.59;98863.84;8953373;32;20278;-75
2020/12/11 06:25:50;;;;;;;28.37;12.87;;;;;;;3.20;74.93;98847.53;8955125;32;21804;-74
2020/12/11 06:30:54;;;;;;;30.07;14.27;;;;;;;3.27;74.67;98843.59;8954573;32;20517;-73
2020/12/11 06:35:57;;;;;;;25.60;12.30;;;;;;;3.32;74.77;98838.88;8954629;32;20212;-74
2020/12/11 06:41:00;;;;;;;31.30;14.07;;;;;;;3.36;74.61;98845.66;8954479;32;20233;-74
2020/12/11 06:46:19;;;;;;;27.97;13.73;;;;;;;3.38;74.54;98843.75;8928822;32;20189;-74
2020/12/11 06:51:23;;;;;;;33.87;14.43;;;;;;;3.36;74.25;98829.81;8954805;32;20937;-74
2020/12/11 06:56:43;;;;;;;26.20;12.17;;;;;;;3.34;74.72;98834.31;8957177;32;20156;-74
2020/12/11 07:01:45;;;;;;;27.90;13.77;;;;;;;3.32;74.22;98823.88;8957404;32;20947;-74
2020/12/11 07:06:48;;;;;;;27.17;13.40;;;;;;;3.37;73.67;98828.84;8958609;32;20443;-74
2020/12/11 07:11:52;;;;;;;23.10;9.73;;;;;;;3.61;73.94;98842.31;8957524;32;20192;-74
2020/12/11 07:16:55;;;;;;;35.47;16.67;;;;;;;3.85;73.27;98836.44;8956168;32;21489;-73
2020/12/11 07:21:57;;;;;;;29.40;13.17;;;;;;;4.03;72.08;98826.47;8955946;32;20564;-74
2020/12/11 07:27:01;;;;;;;22.73;12.47;;;;;;;3.90;71.81;98811.41;8955059;32;20638;-74
2020/12/11 07:32:04;;;;;;;24.87;12.87;;;;;;;3.90;71.77;98806.13;8955093;32;20177;-74
2020/12/11 07:37:06;;;;;;;31.87;13.50;;;;;;;3.71;72.04;98800.34;8954999;32;20145;-74
2020/12/11 07:42:10;;;;;;;24.97;14.33;;;;;;;3.62;72.67;98793.84;8955591;32;20140;-74
2020/12/11 07:47:15;;;;;;;33.90;15.17;;;;;;;3.59;72.85;98782.63;8955693;32;20188;-74
2020/12/11 07:52:28;;;;;;;34.17;15.47;;;;;;;3.60;72.96;98773.78;8934683;32;20462;-74
2020/12/11 07:57:31;;;;;;;28.30;13.83;;;;;;;3.58;73.21;98762.47;8961026;32;20757;-74
2020/12/11 08:02:34;;;;;;;31.53;14.23;;;;;;;3.60;73.04;98776.41;8933582;32;20256;-74
2020/12/11 08:07:37;;;;;;;26.07;13.23;;;;;;;3.68;72.66;98774.13;8960844;32;20454;-74
2020/12/11 08:12:42;;;;;;;30.73;13.87;;;;;;;3.74;72.61;98768.44;8959883;32;20679;-74
2020/12/11 08:17:44;;;;;;;22.87;13.13;;;;;;;3.77;72.63;98766.44;8959995;32;20176;-74
2020/12/11 08:22:47;;;;;;;28.47;13.80;;;;;;;3.74;72.57;98756.09;8959010;32;20188;-73
2020/12/11 08:27:51;;;;;;;30.27;14.47;;;;;;;3.82;72.28;98731.81;8959242;32;20180;-74
2020/12/11 08:32:53;;;;;;;28.50;14.20;;;;;;;3.93;72.18;98739.88;8958885;32;20177;-75
2020/12/11 08:37:58;;;;;;;29.97;12.63;;;;;;;3.98;71.83;98732.50;8958946;32;20209;-74
2020/12/11 08:43:13;;;;;;;27.20;12.93;;;;;;;4.09;71.37;98725.66;8932584;32;20586;-74
2020/12/11 08:48:25;;;;;;;29.57;13.23;;;;;;;4.11;70.83;98732.50;8958451;32;20228;-74
2020/12/11 08:53:33;;;;;;;25.83;12.50;;;;;;;4.16;70.84;98735.69;8957812;32;20264;-74
2020/12/11 08:58:37;;;;;;;28.77;13.37;;;;;;;4.32;70.34;98734.69;8958431;32;21431;-74
2020/12/11 09:03:39;;;;;;;27.17;12.50;;;;;;;4.26;70.61;98733.31;8958343;32;21524;-74
2020/12/11 09:08:41;;;;;;;23.33;11.17;;;;;;;4.30;69.90;98737.41;8957925;32;20958;-74
2020/12/11 09:13:44;;;;;;;23.13;11.80;;;;;;;4.45;69.78;98741.69;8957525;32;20192;-74
2020/12/11 09:18:47;;;;;;;26.47;12.13;;;;;;;4.52;69.41;98744.75;8957876;32;20234;-74
2020/12/11 09:23:50;;;;;;;22.67;10.70;;;;;;;4.57;69.61;98737.34;8956939;32;20228;-74
2020/12/11 09:28:58;;;;;;;21.67;10.67;;;;;;;4.65;69.25;98731.53;8957036;32;20555;-74
2020/12/11 09:34:03;;;;;;;23.27;12.15;;;;;;;4.71;68.86;98723.16;8957518;32;20188;-74
2020/12/11 09:39:09;;;;;;;22.97;12.77;;;;;;;4.69;69.10;98719.81;8957302;32;20245;-74
2020/12/11 09:44:39;;;;;;;24.20;11.47;;;;;;;4.91;68.43;98705.94;8957484;32;20656;-74
2020/12/11 09:49:51;;;;;;;21.60;11.37;;;;;;;4.82;68.41;98699.47;8956356;32;20668;-74
2020/12/11 09:54:53;;;;;;;23.30;11.47;;;;;;;4.96;68.25;98685.25;8957253;32;20283;-75
2020/12/11 10:00:00;;;;;;;21.40;10.97;;;;;;;4.99;67.91;98671.84;8956322;32;20440;-74
2020/12/11 10:05:04;;;;;;;23.33;10.13;;;;;;;5.17;67.29;98659.06;8956546;32;20161;-74
2020/12/11 10:10:06;;;;;;;17.80;8.23;;;;;;;5.23;66.51;98657.78;8956555;32;20791;-74
2020/12/11 10:15:10;;;;;;;22.53;11.53;;;;;;;5.45;66.26;98644.66;8956835;32;20225;-74
2020/12/11 10:20:18;;;;;;;23.83;10.73;;;;;;;5.68;65.26;98644.78;8956227;32;20444;-74
2020/12/11 10:25:21;;;;;;;22.92;11.07;;;;;;;6.43;63.95;98633.78;8956208;32;20626;-73
2020/12/11 10:30:25;;;;;;;20.23;11.23;;;;;;;6.49;62.33;98627.16;8955544;32;20980;-74
2020/12/11 10:35:27;;;;;;;25.92;12.32;;;;;;;6.56;62.51;98617.78;8956160;32;20253;-73
2020/12/11 10:40:29;;;;;;;23.70;10.20;;;;;;;7.10;61.69;98607.22;8955906;32;20145;-73
2020/12/11 10:45:32;;;;;;;22.92;11.35;;;;;;;7.38;59.83;98628.88;8955481;32;20685;-73
2020/12/11 10:50:41;;;;;;;24.20;10.82;;;;;;;6.71;62.09;98607.75;8955876;32;20163;-73
2020/12/11 10:56:05;;;;;;;26.55;13.55;;;;;;;6.68;62.51;98590.25;8955835;32;20990;-73
2020/12/11 11:01:10;;;;;;;25.00;10.55;;;;;;;6.72;62.65;98599.69;8955573;32;20272;-74
2020/12/11 11:06:20;;;;;;;22.05;10.60;;;;;;;6.76;62.90;98589.66;8956064;32;20206;-74
2020/12/11 11:11:26;;;;;;;28.00;11.13;;;;;;;6.92;63.03;98573.34;8930030;32;20294;-74
2020/12/11 11:16:49;;;;;;;26.40;10.98;;;;;;;6.97;62.59;98585.28;8955155;32;20268;-74
2020/12/11 11:27:19;;;;;;;24.00;10.35;;;;;;;6.79;63.67;98561.03;8965286;32;20228;-74
2020/12/11 11:32:22;;;;;;;18.60;8.00;;;;;;;6.50;64.22;98554.56;8960147;32;20198;-73
2020/12/11 11:37:28;;;;;;;20.65;9.65;;;;;;;6.62;64.70;98551.78;8960368;32;20192;-73
2020/12/11 11:42:30;;;;;;;24.27;10.75;;;;;;;6.79;64.53;98542.47;8959666;32;20190;-74
2020/12/11 11:47:36;;;;;;;22.70;9.93;;;;;;;6.71;64.55;98542.25;8960144;32;20260;-73
2020/12/11 11:52:40;;;;;;;23.20;9.85;;;;;;;6.52;65.31;98532.25;8959331;32;20218;-74
2020/12/11 11:57:43;;;;;;;19.65;9.48;;;;;;;6.53;65.51;98528.66;8959137;32;20145;-74
2020/12/11 12:02:46;;;;;;;20.35;11.40;;;;;;;6.36;65.73;98526.47;8959040;32;20673;-73
2020/12/11 12:07:48;;;;;;;26.23;12.90;;;;;;;6.33;66.25;98519.59;8959547;32;20241;-73
2020/12/11 12:12:50;;;;;;;24.60;12.32;;;;;;;6.20;66.40;98514.44;8959728;32;20752;-74
2020/12/11 12:17:58;;;;;;;22.08;10.52;;;;;;;6.17;66.44;98516.47;8933745;32;21917;-75
2020/12/11 12:39:31;;;;;;;28.20;11.50;;;;;;;6.25;66.46;98495.50;8921189;32;21005;-73
2020/12/11 12:44:33;;;;;;;30.13;12.52;;;;;;;6.35;66.38;98498.28;8958296;32;20853;-74
2020/12/11 12:49:36;;;;;;;27.95;11.88;;;;;;;6.40;66.30;98488.16;8957786;32;20283;-72
2020/12/11 12:54:39;;;;;;;28.98;13.80;;;;;;;6.38;66.16;98482.13;8958295;32;20425;-72
2020/12/11 12:59:46;;;;;;;31.95;15.02;;;;;;;6.29;66.16;98482.84;8958204;32;20199;-73
2020/12/11 13:04:57;;;;;;;26.65;13.05;;;;;;;6.07;66.39;98489.00;8958549;32;20211;-73
2020/12/11 13:10:00;;;;;;;27.15;11.63;;;;;;;6.15;66.47;98470.69;8959891;32;20280;-73
2020/12/11 13:15:03;;;;;;;29.67;14.13;;;;;;;6.20;66.57;98452.63;8933786;32;20165;-75
2020/12/11 13:20:10;;;;;;;28.50;13.70;;;;;;;6.17;66.42;98447.53;8958203;32;20683;-75
2020/12/11 13:25:39;;;;;;;25.25;13.15;;;;;;;5.99;66.54;98439.25;8957994;32;20176;-72
2020/12/11 13:30:41;;;;;;;29.80;13.90;;;;;;;6.15;66.62;98437.06;8956840;32;20584;-75
2020/12/11 13:35:44;;;;;;;29.95;13.70;;;;;;;6.12;66.70;98436.47;8956976;32;20662;-72
2020/12/11 13:40:47;;;;;;;30.40;12.93;;;;;;;6.20;66.83;98426.94;8956874;32;20187;-74
2020/12/11 13:45:49;;;;;;;28.50;12.50;;;;;;;6.19;66.80;98430.53;8955526;32;20181;-74
2020/12/11 13:50:53;;;;;;;29.00;13.32;;;;;;;6.22;66.67;98422.34;8956495;32;21706;-74
2020/12/11 13:55:55;;;;;;;29.65;12.57;;;;;;;6.30;66.12;98428.84;8930495;32;20141;-73
2020/12/11 14:00:59;;;;;;;29.50;12.20;;;;;;;6.29;66.04;98429.81;8956612;32;20466;-72
2020/12/11 14:06:02;;;;;;;25.25;10.88;;;;;;;6.08;66.47;98427.06;8956652;32;20189;-74
2020/12/11 14:11:05;;;;;;;28.88;13.10;;;;;;;6.04;67.05;98425.63;8956461;32;20192;-73
2020/12/11 14:16:13;;;;;;;28.08;12.60;;;;;;;6.06;66.96;98427.19;8956195;32;20185;-73
2020/12/11 14:21:39;;;;;;;29.60;13.57;;;;;;;6.09;66.99;98423.44;8929677;32;20187;-74
2020/12/11 14:26:44;;;;;;;28.80;11.68;;;;;;;6.05;66.78;98416.72;8956070;32;20148;-74
2020/12/11 14:31:47;;;;;;;27.15;11.70;;;;;;;5.99;67.29;98423.34;8955057;32;20192;-74
2020/12/11 14:36:52;;;;;;;25.05;12.48;;;;;;;5.96;67.21;98432.38;8955684;32;20218;-74
2020/12/11 14:41:54;;;;;;;29.42;12.05;;;;;;;5.84;68.04;98424.50;8954993;32;20144;-74
2020/12/11 14:46:56;;;;;;;25.53;11.60;;;;;;;5.89;67.94;98433.78;8955727;32;20630;-75
2020/12/11 14:52:00;;;;;;;28.52;13.50;;;;;;;5.89;68.03;98427.63;8954767;32;20486;-75
2020/12/11 14:57:03;;;;;;;29.67;14.00;;;;;;;5.75;68.30;98416.31;8955100;32;20188;-72
2020/12/11 15:02:05;;;;;;;29.17;12.30;;;;;;;5.68;68.34;98412.47;8954922;32;20184;-74
2020/12/11 15:07:08;;;;;;;22.05;10.60;;;;;;;5.68;68.38;98417.78;8955098;32;20678;-74
2020/12/11 15:12:11;;;;;;;28.23;13.15;;;;;;;5.62;68.62;98410.28;8954360;32;20934;-74
2020/12/11 15:17:14;;;;;;;31.33;12.93;;;;;;;5.65;68.62;98415.38;8954959;32;20642;-74
2020/12/11 15:22:17;;;;;;;25.20;12.20;;;;;;;5.75;68.41;98421.63;8875274;32;20784;-74
2020/12/11 15:27:29;;;;;;;31.02;13.70;;;;;;;5.71;68.54;98400.78;8925128;32;20188;-73
2020/12/11 15:32:32;;;;;;;28.05;13.23;;;;;;;5.67;68.67;98402.81;8921778;32;20601;-74
2020/12/11 15:37:35;;;;;;;25.27;11.63;;;;;;;5.60;68.68;98403.44;8892837;32;21049;-74
2020/12/11 15:42:37;;;;;;;31.70;15.18;;;;;;;5.53;69.29;98401.25;8953593;32;20194;-75
2020/12/11 15:47:39;;;;;;;25.17;11.00;;;;;;;5.54;69.18;98395.00;8954451;32;20181;-74
2020/12/11 15:52:42;;;;;;;35.08;13.68;;;;;;;5.44;69.70;98394.03;8953614;32;21631;-73
2020/12/11 15:57:45;;;;;;;29.40;12.93;;;;;;;5.40;70.06;98397.03;8953698;32;20527;-75
2020/12/11 16:02:48;;;;;;;29.70;13.15;;;;;;;5.24;69.91;98386.78;8953686;32;20579;-74
2020/12/11 16:07:51;;;;;;;27.90;11.97;;;;;;;5.32;70.19;98376.44;8954308;32;20957;-75
2020/12/11 16:12:53;;;;;;;31.13;13.13;;;;;;;5.30;69.98;98388.97;8959054;32;20188;-74
2020/12/11 16:17:56;;;;;;;22.70;11.13;;;;;;;5.36;69.65;98396.44;8959451;32;20423;-75
2020/12/11 16:22:59;;;;;;;30.67;13.20;;;;;;;5.19;70.56;98376.53;8932497;32;20169;-75
2020/12/11 16:28:03;;;;;;;30.52;12.63;;;;;;;5.37;69.96;98366.31;8958639;32;20997;-74
2020/12/11 16:33:07;;;;;;;28.15;11.77;;;;;;;5.29;70.28;98376.66;8958170;32;21928;-73
2020/12/11 16:38:11;;;;;;;30.93;12.57;;;;;;;5.21;70.55;98365.81;8952858;32;21460;-74
2020/12/11 16:43:18;;;;;;;30.03;13.30;;;;;;;5.26;70.30;98361.84;8926225;32;20153;-73
2020/12/11 16:48:21;;;;;;;28.87;12.33;;;;;;;5.24;70.42;98358.50;8927199;32;20137;-73
2020/12/11 16:53:25;;;;;;;29.87;11.43;;;;;;;5.18;70.70;98371.34;8906800;32;20276;-73
2020/12/11 16:58:27;;;;;;;27.83;13.40;;;;;;;5.17;70.83;98375.81;8888575;32;20188;-74
2020/12/11 17:03:43;;;;;;;30.52;12.60;;;;;;;5.10;71.16;98374.59;8864905;32;20420;-73
2020/12/11 17:08:49;;;;;;;21.17;10.47;;;;;;;4.98;71.51;98362.31;8859492;32;20734;-73
2020/12/11 17:13:51;;;;;;;31.10;12.93;;;;;;;4.98;71.74;98360.50;8835765;33;20192;-73
2020/12/11 17:18:53;;;;;;;27.97;11.67;;;;;;;4.99;71.63;98366.63;8835950;33;20626;-73
2020/12/11 17:23:58;;;;;;;27.73;12.47;;;;;;;4.94;71.50;98356.41;8810767;33;20661;-73
2020/12/11 17:29:03;;;;;;;28.27;11.37;;;;;;;4.90;71.67;98368.16;8835800;33;20228;-72
2020/12/11 17:34:15;;;;;;;23.00;10.27;;;;;;;4.83;71.72;98359.03;8836038;33;21425;-73
2020/12/11 17:39:19;;;;;;;23.93;10.63;;;;;;;4.86;71.80;98369.38;8835413;33;20197;-73
2020/12/11 17:44:24;;;;;;;28.67;13.40;;;;;;;4.83;72.00;98369.59;8835503;33;20219;-72
2020/12/11 17:49:26;;;;;;;30.43;14.03;;;;;;;4.83;71.74;98372.25;8834824;33;20149;-74
2020/12/11 17:54:30;;;;;;;27.40;12.50;;;;;;;4.74;71.94;98365.81;8835151;33;20931;-73
2020/12/11 17:59:33;;;;;;;33.53;13.83;;;;;;;4.78;71.78;98356.72;8832597;32;20162;-74
2020/12/11 18:04:37;;;;;;;26.87;12.37;;;;;;;4.66;71.83;98347.03;8834985;33;20142;-73
2020/12/11 18:09:40;;;;;;;31.77;13.93;;;;;;;4.71;71.88;98344.06;8834737;33;20614;-74
2020/12/11 18:14:43;;;;;;;30.57;14.20;;;;;;;4.58;72.69;98350.28;8835616;32;20438;-73
2020/12/11 18:19:45;;;;;;;30.43;12.73;;;;;;;4.50;72.63;98346.50;8863107;32;20258;-73
2020/12/11 18:24:49;;;;;;;28.57;11.87;;;;;;;4.55;72.34;98352.28;8874785;32;20317;-75
2020/12/11 18:29:52;;;;;;;30.90;13.27;;;;;;;4.46;72.64;98352.03;8869217;32;20185;-75
2020/12/11 18:34:54;;;;;;;28.90;13.47;;;;;;;4.41;72.87;98358.59;8922856;32;20228;-75
2020/12/11 18:39:57;;;;;;;27.93;12.70;;;;;;;4.46;72.53;98369.69;8947675;32;20444;-72
2020/12/11 18:45:00;;;;;;;24.70;11.97;;;;;;;4.49;72.57;98355.41;8894437;32;20146;-74
2020/12/11 18:50:03;;;;;;;27.50;12.33;;;;;;;4.56;72.47;98346.06;8893614;32;20704;-72
2020/12/11 18:55:12;;;;;;;30.43;12.97;;;;;;;4.60;72.54;98353.63;8894227;32;20158;-74
2020/12/11 19:00:15;;;;;;;28.40;12.70;;;;;;;4.59;72.15;98356.41;8893420;32;20882;-74
2020/12/11 19:05:17;;;;;;;27.93;13.47;;;;;;;4.59;72.43;98343.19;8777051;28;20192;-73
2020/12/11 19:10:21;;;;;;;29.73;13.07;;;;;;;4.68;72.39;98345.13;8652420;33;20283;-73
2020/12/11 19:15:23;;;;;;;33.87;14.13;;;;;;;4.74;72.34;98352.59;8662224;33;20153;-73
2020/12/11 19:20:26;;;;;;;30.00;14.03;;;;;;;4.68;72.19;98339.84;8692023;33;20353;-73
2020/12/11 19:25:29;;;;;;;31.80;13.93;;;;;;;4.78;72.16;98347.94;8692353;33;20641;-73
2020/12/11 19:30:31;;;;;;;28.73;12.40;;;;;;;4.81;71.91;98340.59;8692043;33;20644;-73
2020/12/11 19:35:34;;;;;;;28.07;12.70;;;;;;;4.86;71.48;98341.09;8691999;33;20183;-74
2020/12/11 19:40:37;;;;;;;30.67;12.63;;;;;;;4.89;71.36;98350.63;8690212;33;20202;-73
2020/12/11 19:45:40;;;;;;;32.50;14.17;;;;;;;4.94;70.94;98337.88;8695488;33;20156;-72
2020/12/11 19:50:43;;;;;;;30.20;12.63;;;;;;;4.94;71.14;98345.81;8696569;33;20173;-70
2020/12/11 19:55:46;;;;;;;26.38;11.95;;;;;;;4.94;71.18;98350.25;8718917;33;20180;-71
2020/12/11 20:00:49;;;;;;;27.50;12.37;;;;;;;5.03;70.87;98342.47;8696052;33;20155;-72
2020/12/11 20:05:51;;;;;;;26.42;11.98;;;;;;;4.97;71.23;98335.00;8696562;33;20149;-72
2020/12/11 20:10:54;;;;;;;30.07;13.60;;;;;;;4.94;71.17;98337.00;8696360;33;20149;-72
2020/12/11 20:15:57;;;;;;;27.60;13.00;;;;;;;4.94;71.17;98331.72;8696521;33;20488;-72
2020/12/11 20:20:59;;;;;;;26.47;12.33;;;;;;;4.99;71.18;98337.50;8696164;33;20708;-72
2020/12/11 20:26:02;;;;;;;33.53;12.77;;;;;;;4.95;71.18;98336.06;8696300;33;20156;-72
2020/12/11 20:31:05;;;;;;;24.43;11.87;;;;;;;4.98;71.16;98336.69;8695759;33;20198;-71
2020/12/11 20:36:07;;;;;;;27.13;12.23;;;;;;;4.92;71.15;98334.50;8696338;33;20203;-70
2020/12/11 20:41:11;;;;;;;24.63;11.70;;;;;;;4.87;71.43;98329.56;8695706;33;20153;-70
2020/12/11 20:46:13;;;;;;;28.77;12.10;;;;;;;4.86;71.40;98330.53;8695914;33;20176;-71
2020/12/11 20:51:16;;;;;;;25.87;12.53;;;;;;;4.83;71.35;98332.56;8695348;33;20306;-70
2020/12/11 20:56:20;;;;;;;27.47;12.03;;;;;;;4.72;72.00;98338.66;8695830;33;20230;-72
2020/12/11 21:01:24;;;;;;;30.57;13.47;;;;;;;4.65;72.13;98340.91;8679766;33;20279;-71
2020/12/11 21:06:26;;;;;;;30.15;13.82;;;;;;;4.58;72.53;98329.13;8635315;34;20160;-71
2020/12/11 21:11:30;;;;;;;31.90;14.33;;;;;;;4.48;73.04;98322.84;8659287;33;21074;-70
2020/12/11 21:16:32;;;;;;;30.13;12.20;;;;;;;4.50;72.97;98328.84;8637439;34;20199;-71
2020/12/11 21:21:34;;;;;;;30.03;12.10;;;;;;;4.53;72.80;98323.34;8636935;33;20239;-71
2020/12/11 21:26:38;;;;;;;28.93;12.97;;;;;;;4.44;73.03;98327.50;8637346;33;20715;-71
2020/12/11 21:31:45;;;;;;;30.50;12.70;;;;;;;4.63;72.97;98313.72;8636743;33;20184;-70
2020/12/11 21:36:47;;;;;;;32.97;12.97;;;;;;;4.64;73.04;98310.16;8636868;33;20249;-70
2020/12/11 21:41:52;;;;;;;33.27;14.20;;;;;;;4.74;72.41;98317.38;8635573;34;20152;-70
2020/12/11 21:46:55;;;;;;;29.37;13.23;;;;;;;4.75;72.55;98304.06;8636872;33;20173;-69
2020/12/11 21:52:03;;;;;;;25.87;12.53;;;;;;;4.85;72.63;98302.41;8636364;34;20185;-70
2020/12/11 21:57:06;;;;;;;27.27;11.83;;;;;;;4.83;72.72;98306.13;8636334;34;20153;-70
2020/12/11 22:02:10;;;;;;;22.43;11.40;;;;;;;4.85;72.87;98301.53;8642632;33;20265;-71
2020/12/11 22:07:13;;;;;;;30.37;12.57;;;;;;;4.85;72.58;98299.75;8692746;33;20125;-71
2020/12/11 22:12:16;;;;;;;30.13;14.63;;;;;;;4.83;72.86;98295.53;8693579;33;20148;-70
2020/12/11 22:17:18;;;;;;;27.63;12.77;;;;;;;4.82;72.98;98292.03;8693574;33;20236;-70
2020/12/11 22:22:22;;;;;;;26.63;12.87;;;;;;;4.84;73.12;98303.34;8692380;33;20133;-72
2020/12/11 22:27:25;;;;;;;31.23;12.70;;;;;;;4.93;73.17;98300.94;8692916;33;20160;-72
2020/12/11 22:32:27;;;;;;;28.43;13.03;;;;;;;4.90;73.32;98300.22;8693033;33;20157;-74
2020/12/11 22:37:30;;;;;;;25.37;12.50;;;;;;;5.01;73.06;98295.91;8692813;33;20968;-73
2020/12/11 22:42:33;;;;;;;34.63;13.87;;;;;;;5.03;73.21;98302.75;8692085;33;20140;-74
2020/12/11 22:47:35;;;;;;;27.50;11.97;;;;;;;5.06;73.16;98299.88;8692024;33;20149;-72
2020/12/11 22:52:38;;;;;;;32.07;13.87;;;;;;;5.08;73.20;98299.78;8688294;33;20157;-71
2020/12/11 22:57:42;;;;;;;28.23;13.73;;;;;;;5.07;74.44;98295.41;8691956;33;20762;-72
2020/12/11 23:02:45;;;;;;;27.17;12.70;;;;;;;4.89;77.20;98305.63;8692008;33;20194;-72
2020/12/11 23:07:49;;;;;;;25.87;11.00;;;;;;;4.70;79.38;98300.06;8691982;33;20620;-71
2020/12/11 23:12:52;;;;;;;29.13;13.17;;;;;;;4.53;80.88;98293.41;8692091;33;20246;-72
2020/12/11 23:17:54;;;;;;;30.57;14.97;;;;;;;4.46;81.79;98299.13;8692769;33;20144;-70
2020/12/11 23:22:57;;;;;;;33.33;14.93;;;;;;;4.48;82.03;98299.03;8697993;33;20515;-73
2020/12/11 23:28:00;;;;;;;34.97;15.03;;;;;;;4.35;82.73;98290.34;8697502;33;20625;-71
2020/12/11 23:33:02;;;;;;;32.03;13.23;;;;;;;4.28;83.29;98289.97;8697760;33;20153;-71
2020/12/11 23:38:05;;;;;;;33.40;13.10;;;;;;;4.29;83.68;98294.28;8699836;33;20159;-71
2020/12/11 23:43:08;;;;;;;33.90;13.93;;;;;;;4.26;84.49;98289.22;8697825;33;20374;-72
2020/12/11 23:48:10;;;;;;;34.83;15.63;;;;;;;4.30;84.44;98292.47;8697956;33;20632;-72
2020/12/11 23:53:13;;;;;;;31.30;13.90;;;;;;;4.28;84.55;98287.31;8696929;33;20234;-73